createdAt,value
2019-05-06T00:03:28.287Z,60.00
2019-05-06T00:08:27.995Z,60.10
2019-05-06T00:13:27.748Z,60.40
2019-05-06T00:18:27.480Z,60.70
2019-05-06T00:23:32.015Z,60.70
2019-05-06T00:28:44.664Z,61.00
2019-05-06T00:33:44.407Z,61.20
2019-05-06T00:38:46.047Z,61.30
2019-05-06T00:43:45.701Z,61.20
2019-05-06T00:48:45.367Z,61.60
2019-05-06T00:53:49.204Z,61.90
2019-05-06T00:58:48.848Z,62.00
2019-05-06T01:04:00.499Z,62.20
2019-05-06T01:09:00.595Z,62.60
2019-05-06T01:14:09.156Z,62.90
2019-05-06T01:19:08.808Z,62.70
2019-05-06T01:24:27.699Z,63.10
2019-05-06T01:29:27.356Z,63.20
2019-05-06T01:34:27.007Z,63.20
2019-05-06T01:39:50.551Z,63.10
2019-05-06T01:44:50.316Z,64.10
2019-05-06T01:49:49.959Z,63.40
2019-05-06T01:54:49.615Z,63.50
2019-05-06T01:59:49.253Z,64.80
2019-05-06T02:04:48.919Z,65.00
2019-05-06T02:09:48.595Z,65.10
2019-05-06T02:14:48.503Z,65.00
2019-05-06T02:19:48.501Z,64.90
2019-05-06T02:24:53.583Z,65.40
2019-05-06T02:29:59.105Z,65.30
2019-05-06T02:35:26.288Z,65.30
2019-05-06T02:40:28.359Z,65.50
2019-05-06T02:45:28.067Z,65.50
2019-05-06T02:50:29.605Z,65.70
2019-05-06T02:55:33.309Z,65.80
2019-05-06T03:00:32.899Z,65.90
2019-05-06T03:05:33.423Z,66.20
2019-05-06T03:10:33.402Z,66.30
2019-05-06T03:15:34.292Z,66.30
2019-05-06T03:21:04.118Z,66.60
2019-05-06T03:26:06.524Z,67.10
2019-05-06T03:31:07.860Z,67.00
2019-05-06T03:36:18.659Z,67.30
2019-05-06T03:41:08.995Z,67.10
2019-05-06T03:46:23.403Z,67.30
2019-05-06T03:51:23.461Z,67.70
2019-05-06T03:56:24.120Z,67.70
2019-05-06T04:01:24.295Z,67.60
2019-05-06T04:06:24.343Z,68.50
2019-05-06T04:11:24.887Z,68.30
2019-05-06T04:16:37.548Z,68.60
2019-05-06T04:21:44.927Z,68.50
2019-05-06T04:26:56.947Z,69.00
2019-05-06T04:31:56.742Z,69.20
2019-05-06T04:36:56.392Z,69.40
2019-05-06T04:41:56.581Z,69.10
2019-05-06T04:46:56.789Z,69.80
2019-05-06T04:51:56.895Z,70.00
2019-05-06T04:56:56.761Z,70.20
2019-05-06T05:01:56.570Z,70.70
2019-05-06T05:06:56.227Z,70.70
2019-05-06T05:12:02.964Z,71.30
2019-05-06T05:17:32.996Z,71.90
2019-05-06T05:22:32.601Z,71.90
2019-05-06T05:27:33.049Z,71.90
2019-05-06T05:32:33.760Z,71.30
2019-05-06T05:37:33.419Z,71.90
2019-05-06T05:42:58.599Z,72.00
2019-05-06T05:48:02.747Z,72.50
2019-05-06T05:53:02.632Z,72.70
2019-05-06T05:58:03.123Z,73.20
2019-05-06T06:03:06.487Z,73.50
2019-05-06T06:08:04.779Z,73.60
2019-05-06T06:13:05.092Z,73.40
2019-05-06T06:18:36.465Z,72.90
2019-05-06T06:23:39.582Z,74.00
2019-05-06T06:28:39.406Z,72.10
2019-05-06T06:33:39.164Z,72.50
2019-05-06T06:39:04.277Z,72.30
2019-05-06T06:44:08.752Z,72.20
2019-05-06T06:49:08.575Z,72.60
2019-05-06T06:54:08.207Z,72.90
2019-05-06T06:59:33.511Z,72.20
2019-05-06T07:04:38.427Z,72.30
2019-05-06T07:09:38.068Z,72.20
2019-05-06T07:14:37.800Z,72.20
2019-05-06T07:19:42.237Z,71.60
2019-05-06T07:24:54.187Z,71.70
2019-05-06T07:29:53.923Z,70.80
2019-05-06T07:34:54.055Z,70.10
2019-05-06T07:39:53.699Z,70.10
2019-05-06T07:45:06.428Z,69.50
2019-05-06T07:50:05.020Z,69.40
2019-05-06T07:55:06.335Z,69.20
2019-05-06T08:00:06.845Z,67.80
2019-05-06T08:05:07.684Z,67.90
2019-05-06T08:10:07.750Z,67.40
2019-05-06T08:15:07.838Z,67.00
2019-05-06T08:20:08.586Z,66.50
2019-05-06T08:25:08.223Z,66.20
2019-05-06T08:30:08.457Z,66.10
2019-05-06T08:35:10.009Z,65.00
2019-05-06T08:40:11.921Z,65.00
2019-05-06T08:45:12.826Z,64.30
2019-05-06T08:50:32.484Z,64.20
2019-05-06T08:55:35.007Z,64.40
2019-05-06T09:00:38.575Z,63.00
2019-05-06T09:05:38.343Z,62.60
2019-05-06T09:10:38.059Z,62.20
2019-05-06T09:15:37.704Z,62.00
2019-05-06T09:20:37.359Z,61.40
2019-05-06T09:25:37.038Z,60.50
2019-05-06T09:30:58.764Z,59.20
2019-05-06T09:35:58.415Z,58.70
2019-05-06T09:40:58.355Z,59.00
2019-05-06T09:45:58.063Z,58.70
2019-05-06T09:50:57.785Z,58.80
2019-05-06T09:56:15.293Z,58.60
2019-05-06T10:01:15.943Z,58.60
2019-05-06T10:06:15.647Z,58.50
2019-05-06T10:11:15.302Z,58.10
2019-05-06T10:16:15.095Z,57.60
2019-05-06T10:21:14.811Z,56.90
2019-05-06T10:26:14.539Z,56.70
2019-05-06T10:31:17.866Z,56.70
2019-05-06T10:36:17.604Z,56.00
2019-05-06T10:41:19.751Z,56.50
2019-05-06T10:46:19.474Z,56.20
2019-05-06T10:51:27.355Z,57.60
2019-05-06T10:56:53.792Z,60.20
2019-05-06T11:01:48.070Z,62.40
2019-05-06T11:06:49.107Z,63.80
2019-05-06T11:11:48.764Z,65.90
2019-05-06T11:16:48.381Z,67.10
2019-05-06T11:21:48.027Z,67.30
2019-05-06T11:26:47.711Z,66.30
2019-05-06T11:32:23.707Z,64.70
2019-05-06T11:37:50.831Z,62.80
2019-05-06T11:42:49.509Z,63.50
2019-05-06T11:47:49.170Z,64.40
2019-05-06T11:52:48.811Z,64.00
2019-05-06T11:57:48.469Z,64.70
2019-05-06T12:02:48.979Z,65.20
2019-05-06T12:08:03.772Z,65.50
2019-05-06T12:12:50.079Z,65.20
2019-05-06T12:17:49.992Z,66.40
2019-05-06T12:22:49.655Z,67.40
2019-05-06T12:27:49.396Z,70.00
2019-05-06T12:33:13.016Z,70.90
2019-05-06T12:38:29.459Z,71.10
2019-05-06T12:43:55.751Z,71.70
2019-05-06T12:48:55.399Z,70.90
2019-05-06T12:53:55.032Z,71.70
2019-05-06T12:58:54.991Z,71.20
2019-05-06T13:03:54.766Z,69.60
2019-05-06T13:09:01.416Z,67.90
2019-05-06T13:14:00.343Z,67.60
2019-05-06T13:18:58.097Z,67.90
2019-05-06T13:24:04.653Z,68.10
2019-05-06T13:29:13.995Z,67.70
2019-05-06T13:34:18.117Z,67.60
2019-05-06T13:39:18.098Z,67.50
2019-05-06T13:44:19.215Z,67.60
2019-05-06T13:49:30.747Z,67.70
2019-05-06T13:54:30.391Z,67.80
2019-05-06T13:59:30.831Z,68.00
2019-05-06T14:04:32.613Z,68.40
2019-05-06T14:09:39.556Z,69.20
2019-05-06T14:14:33.460Z,69.20
2019-05-06T14:19:33.381Z,69.60
2019-05-06T14:24:34.180Z,69.10
2019-05-06T14:29:48.639Z,69.10
2019-05-06T14:34:51.992Z,67.90
2019-05-06T14:39:58.886Z,68.10
2019-05-06T14:44:54.462Z,67.00
2019-05-06T14:49:54.191Z,65.90
2019-05-06T14:54:56.148Z,65.50
2019-05-06T14:59:56.049Z,65.40
2019-05-06T15:04:55.943Z,65.00
2019-05-06T15:10:08.015Z,64.60
2019-05-06T15:14:57.304Z,65.00
2019-05-06T15:19:56.935Z,65.40
2019-05-06T15:24:56.919Z,65.70
2019-05-06T15:29:58.478Z,66.20
2019-05-06T15:35:04.900Z,66.70
2019-05-06T15:40:06.359Z,66.90
2019-05-06T15:45:06.723Z,67.10
2019-05-06T15:50:06.762Z,67.70
2019-05-06T15:55:07.079Z,67.50
2019-05-06T16:00:07.662Z,68.30
2019-05-06T16:05:14.008Z,68.20
2019-05-06T16:10:09.055Z,68.20
2019-05-06T16:15:09.155Z,68.20
2019-05-06T16:20:28.044Z,68.70
2019-05-06T16:25:27.780Z,68.40
2019-05-06T16:30:27.472Z,68.50
2019-05-06T16:35:27.127Z,68.70
2019-05-06T16:40:26.924Z,68.80
2019-05-06T16:45:26.739Z,68.50
2019-05-06T16:50:29.494Z,68.90
2019-05-06T16:55:48.462Z,68.40
2019-05-06T17:00:48.202Z,69.50
2019-05-06T17:06:13.825Z,68.90
2019-05-06T17:11:27.126Z,69.10
2019-05-06T17:16:14.814Z,69.50
2019-05-06T17:21:14.539Z,69.70
2019-05-06T17:26:15.150Z,69.80
2019-05-06T17:31:32.888Z,69.70
2019-05-06T17:36:34.183Z,69.80
2019-05-06T17:41:44.515Z,69.90
2019-05-06T17:46:42.593Z,70.00
2019-05-06T17:52:13.177Z,69.80
2019-05-06T17:57:12.923Z,70.10
2019-05-06T18:02:15.450Z,70.00
2019-05-06T18:07:15.291Z,70.00
2019-05-06T18:12:15.295Z,70.00
2019-05-06T18:17:14.916Z,70.00
2019-05-06T18:22:14.571Z,70.20
2019-05-06T18:27:14.214Z,70.30
2019-05-06T18:32:13.867Z,70.40
2019-05-06T18:37:13.600Z,70.40
2019-05-06T18:42:19.156Z,70.40
2019-05-06T18:47:15.843Z,70.50
2019-05-06T18:52:15.491Z,70.50
2019-05-06T18:57:15.372Z,70.60
2019-05-06T19:02:15.056Z,70.60
2019-05-06T19:07:17.162Z,70.80
2019-05-06T19:12:28.909Z,70.90
2019-05-06T19:17:17.555Z,70.90
2019-05-06T19:22:17.519Z,70.70
2019-05-06T19:27:18.197Z,70.90
2019-05-06T19:32:17.932Z,71.00
2019-05-06T19:37:17.639Z,71.00
2019-05-06T19:42:17.302Z,71.10
2019-05-06T19:47:17.300Z,71.10
2019-05-06T19:52:17.215Z,71.00
2019-05-06T19:57:16.887Z,71.10
2019-05-06T20:02:16.696Z,71.30
2019-05-06T20:07:26.891Z,71.50
2019-05-06T20:12:32.864Z,71.40
2019-05-06T20:17:32.813Z,71.60
2019-05-06T20:22:32.614Z,71.90
2019-05-06T20:27:32.471Z,72.10
2019-05-06T20:32:32.309Z,72.10
2019-05-06T20:37:32.987Z,72.10
2019-05-06T20:42:32.816Z,72.10
2019-05-06T20:47:32.520Z,72.40
2019-05-06T20:52:33.193Z,72.60
2019-05-06T20:57:33.231Z,72.50
2019-05-06T21:02:32.883Z,72.40
2019-05-06T21:07:32.515Z,72.40
2019-05-06T21:12:33.756Z,72.40
2019-05-06T21:17:33.783Z,72.50
2019-05-06T21:22:33.568Z,72.50
2019-05-06T21:27:33.578Z,72.30
2019-05-06T21:32:33.253Z,72.20
2019-05-06T21:37:32.966Z,72.50
2019-05-06T21:42:32.636Z,72.40
2019-05-06T21:47:32.583Z,72.60
2019-05-06T21:52:39.260Z,72.60
2019-05-06T21:57:33.671Z,72.50
2019-05-06T22:02:33.355Z,72.60
2019-05-06T22:07:35.806Z,72.60
2019-05-06T22:12:34.484Z,72.70
2019-05-06T22:17:34.139Z,72.50
2019-05-06T22:22:34.218Z,72.60
2019-05-06T22:27:34.163Z,72.60
2019-05-06T22:32:45.319Z,72.50
2019-05-06T22:37:45.217Z,72.60
2019-05-06T22:42:46.043Z,72.40
2019-05-06T22:47:45.690Z,72.50
2019-05-06T22:52:46.312Z,72.50
2019-05-06T22:57:45.957Z,72.50
2019-05-06T23:02:54.827Z,72.50
2019-05-06T23:07:54.459Z,72.50
2019-05-06T23:12:54.126Z,72.60
2019-05-06T23:17:53.771Z,72.80
2019-05-06T23:22:53.394Z,72.70
2019-05-06T23:27:53.166Z,72.50
2019-05-06T23:32:53.091Z,72.50
2019-05-06T23:38:29.063Z,72.60
2019-05-06T23:44:04.798Z,72.50
2019-05-06T23:49:42.243Z,72.60
2019-05-06T23:55:19.306Z,72.60
